< Cyclone 198501 1985 Season Cyclone 198503 >
Cyclone 198502 (FRANK)
General InformationTrack Information on Google MapsDetailed Wind InformationList of All Images || ResourceGoogle EarthGE AnimationAtom FeedGeoJSON
Detalied Best Track (Time Zone = UTC)
Year Month Day Hour Lat. Long. Pressure (hPa) Wind (kt) Class Image Chart
1984 12 19 18 -16.3 129.0 1001 25 2 Image --
1984 12 20 00 -16.4 128.2 1001 25 2 Image --
1984 12 20 06 -16.4 127.5 1000 25 2 Image --
1984 12 20 12 -16.5 126.9 1000 25 2 Image --
1984 12 20 18 -16.5 126.2 999 25 2 Image --
1984 12 21 00 -16.6 125.5 999 25 2 Image --
1984 12 21 06 -16.6 124.8 998 25 2 Image --
1984 12 21 12 -16.7 124.2 998 25 2 Image --
1984 12 21 18 -16.7 123.8 998 30 2 Image --
1984 12 22 00 -16.9 123.2 997 30 2 Image --
1984 12 22 06 -17.3 122.7 996 30 2 Image --
1984 12 22 09 -17.5 122.3 994 30 2 Image --
1984 12 22 12 -17.3 122.1 990 40 3 Image --
1984 12 22 14 -17.3 122.0 988 40 3 Image --
1984 12 22 16 -17.3 121.9 986 45 3 Image --
1984 12 22 18 -17.1 121.8 984 50 4 Image --
1984 12 22 19 -17.1 121.9 984 50 4 Image --
1984 12 22 20 -17.2 121.9 983 50 4 Image --
1984 12 22 21 -17.3 121.8 982 50 4 Image --
1984 12 22 22 -17.3 121.7 982 50 4 Image --
1984 12 22 23 -17.3 121.6 981 50 4 Image --
1984 12 23 00 -17.2 121.5 980 50 4 Image --
1984 12 23 06 -17.4 121.2 978 50 4 Image --
1984 12 23 09 -17.5 121.0 976 55 4 Image --
1984 12 23 12 -17.6 120.3 968 60 4 Image --
1984 12 23 16 -17.5 120.7 973 60 4 Image --
1984 12 23 18 -17.6 120.2 966 65 5 Image --
1984 12 23 21 -17.4 119.9 962 70 5 Image --
1984 12 24 00 -17.5 119.6 958 70 5 Image --
1984 12 24 03 -17.4 119.3 956 75 5 Image --
1984 12 24 06 -17.3 119.0 954 80 5 Image --
1984 12 24 09 -17.4 118.7 950 85 5 Image --
1984 12 24 12 -17.4 118.4 952 85 5 Image --
1984 12 24 18 -17.4 117.9 952 85 5 Image --
1984 12 25 00 -17.3 117.6 954 80 5 Image --
1984 12 25 06 -17.5 117.2 956 80 5 Image --
1984 12 25 12 -17.9 117.0 958 80 5 Image --
1984 12 25 18 -18.1 117.1 960 80 5 Image --
1984 12 26 00 -18.4 117.3 962 80 5 Image --
1984 12 26 03 -18.6 117.4 964 75 5 Image --
1984 12 26 06 -18.9 117.4 966 70 5 Image --
1984 12 26 09 -19.1 117.5 970 65 5 Image --
1984 12 26 12 -19.2 117.6 976 60 4 Image --
1984 12 26 16 -19.4 117.7 982 55 4 Image --
1984 12 26 18 -19.5 117.9 984 50 4 Image --
1984 12 26 21 -19.7 118.1 986 50 4 Image --
1984 12 27 00 -20.0 118.2 988 50 4 Image --
1984 12 27 03 -20.4 118.3 990 45 3 Image --
1984 12 27 06 -20.7 118.7 993 40 3 Image --
1984 12 27 09 -21.1 119.2 997 30 2 Image --
1984 12 27 12 -21.3 119.9 997 30 2 Image --
1984 12 27 18 -21.4 120.9 998 30 2 Image --
1984 12 28 00 -21.5 122.2 1000 25 2 Image --
< Cyclone 198501 1985 Season Cyclone 198503 >

Help